sensor_id;sensor_type;location;lat;lon;timestamp;P1;durP1;ratioP1;P2;durP2;ratioP2
24445;SDS011;13347;50.984;5.822;2022-10-04T00:01:01;276.90;;;263.52;;
24445;SDS011;13347;50.984;5.822;2022-10-04T00:03:33;256.37;;;244.63;;
24445;SDS011;13347;50.984;5.822;2022-10-04T00:06:05;257.23;;;245.48;;
24445;SDS011;13347;50.984;5.822;2022-10-04T00:08:40;263.10;;;250.70;;
24445;SDS011;13347;50.984;5.822;2022-10-04T00:11:15;279.95;;;267.30;;
24445;SDS011;13347;50.984;5.822;2022-10-04T00:13:49;270.67;;;258.40;;
24445;SDS011;13347;50.984;5.822;2022-10-04T00:16:21;261.80;;;249.60;;
24445;SDS011;13347;50.984;5.822;2022-10-04T00:19:12;242.85;;;231.82;;
24445;SDS011;13347;50.984;5.822;2022-10-04T00:22:10;234.90;;;224.43;;
24445;SDS011;13347;50.984;5.822;2022-10-04T00:25:13;223.38;;;213.52;;
24445;SDS011;13347;50.984;5.822;2022-10-04T00:30:42;181.00;;;172.90;;
24445;SDS011;13347;50.984;5.822;2022-10-04T00:33:09;127.75;;;121.53;;
24445;SDS011;13347;50.984;5.822;2022-10-04T00:35:49;118.40;;;113.15;;
24445;SDS011;13347;50.984;5.822;2022-10-04T00:38:16;146.80;;;139.73;;
24445;SDS011;13347;50.984;5.822;2022-10-04T00:40:54;142.27;;;135.90;;
24445;SDS011;13347;50.984;5.822;2022-10-04T00:43:27;159.52;;;152.32;;
24445;SDS011;13347;50.984;5.822;2022-10-04T00:46:01;176.93;;;168.85;;
24445;SDS011;13347;50.984;5.822;2022-10-04T00:48:33;185.88;;;177.40;;
24445;SDS011;13347;50.984;5.822;2022-10-04T00:51:08;193.48;;;184.82;;
24445;SDS011;13347;50.984;5.822;2022-10-04T00:53:50;174.63;;;166.93;;
24445;SDS011;13347;50.984;5.822;2022-10-04T00:56:26;195.05;;;186.35;;
24445;SDS011;13347;50.984;5.822;2022-10-04T00:59:05;191.00;;;182.30;;
24445;SDS011;13347;50.984;5.822;2022-10-04T01:01:40;205.93;;;196.60;;
24445;SDS011;13347;50.984;5.822;2022-10-04T01:04:20;212.95;;;203.43;;
24445;SDS011;13347;50.984;5.822;2022-10-04T01:06:53;199.40;;;190.23;;
24445;SDS011;13347;50.984;5.822;2022-10-04T01:09:23;206.48;;;197.20;;
24445;SDS011;13347;50.984;5.822;2022-10-04T01:11:55;246.00;;;234.85;;
24445;SDS011;13347;50.984;5.822;2022-10-04T01:14:28;276.67;;;263.50;;
24445;SDS011;13347;50.984;5.822;2022-10-04T01:17:02;364.83;;;347.02;;
24445;SDS011;13347;50.984;5.822;2022-10-04T01:19:30;403.42;;;383.27;;
24445;SDS011;13347;50.984;5.822;2022-10-04T01:22:02;433.30;;;412.17;;
24445;SDS011;13347;50.984;5.822;2022-10-04T01:24:38;389.13;;;370.42;;
24445;SDS011;13347;50.984;5.822;2022-10-04T01:30:07;392.00;;;373.13;;
24445;SDS011;13347;50.984;5.822;2022-10-04T01:32:37;379.70;;;361.48;;
24445;SDS011;13347;50.984;5.822;2022-10-04T01:35:06;390.25;;;371.42;;
24445;SDS011;13347;50.984;5.822;2022-10-04T01:37:35;382.13;;;363.55;;
24445;SDS011;13347;50.984;5.822;2022-10-04T01:40:05;288.42;;;274.80;;
24445;SDS011;13347;50.984;5.822;2022-10-04T01:42:35;306.58;;;292.40;;
24445;SDS011;13347;50.984;5.822;2022-10-04T01:45:09;302.58;;;288.33;;
24445;SDS011;13347;50.984;5.822;2022-10-04T01:47:46;297.90;;;284.08;;
24445;SDS011;13347;50.984;5.822;2022-10-04T01:50:19;293.00;;;279.33;;
24445;SDS011;13347;50.984;5.822;2022-10-04T01:52:51;284.45;;;271.15;;
24445;SDS011;13347;50.984;5.822;2022-10-04T01:55:28;324.85;;;309.15;;
24445;SDS011;13347;50.984;5.822;2022-10-04T01:58:00;346.83;;;329.90;;
24445;SDS011;13347;50.984;5.822;2022-10-04T02:00:33;333.75;;;317.92;;
24445;SDS011;13347;50.984;5.822;2022-10-04T02:03:03;337.67;;;321.27;;
24445;SDS011;13347;50.984;5.822;2022-10-04T02:05:37;326.52;;;310.55;;
24445;SDS011;13347;50.984;5.822;2022-10-04T02:08:09;294.52;;;280.70;;
24445;SDS011;13347;50.984;5.822;2022-10-04T02:10:42;317.30;;;302.10;;
24445;SDS011;13347;50.984;5.822;2022-10-04T02:13:12;348.80;;;331.80;;
24445;SDS011;13347;50.984;5.822;2022-10-04T02:15:43;364.58;;;346.52;;
24445;SDS011;13347;50.984;5.822;2022-10-04T02:18:12;347.85;;;331.08;;
24445;SDS011;13347;50.984;5.822;2022-10-04T02:20:41;358.70;;;341.20;;
24445;SDS011;13347;50.984;5.822;2022-10-04T02:23:10;343.98;;;327.50;;
24445;SDS011;13347;50.984;5.822;2022-10-04T02:25:38;327.45;;;312.25;;
24445;SDS011;13347;50.984;5.822;2022-10-04T02:28:09;351.23;;;334.42;;
24445;SDS011;13347;50.984;5.822;2022-10-04T02:30:40;365.00;;;347.33;;
24445;SDS011;13347;50.984;5.822;2022-10-04T02:33:29;337.05;;;320.52;;
24445;SDS011;13347;50.984;5.822;2022-10-04T02:35:56;322.33;;;307.05;;
24445;SDS011;13347;50.984;5.822;2022-10-04T02:38:26;346.25;;;329.40;;
24445;SDS011;13347;50.984;5.822;2022-10-04T02:41:00;332.88;;;316.70;;
24445;SDS011;13347;50.984;5.822;2022-10-04T02:43:38;397.00;;;377.92;;
24445;SDS011;13347;50.984;5.822;2022-10-04T02:46:13;375.15;;;356.88;;
24445;SDS011;13347;50.984;5.822;2022-10-04T02:48:44;378.85;;;360.65;;
24445;SDS011;13347;50.984;5.822;2022-10-04T02:51:16;385.65;;;367.25;;
24445;SDS011;13347;50.984;5.822;2022-10-04T02:53:52;364.67;;;347.00;;
24445;SDS011;13347;50.984;5.822;2022-10-04T02:56:23;353.52;;;336.42;;
24445;SDS011;13347;50.984;5.822;2022-10-04T02:58:52;359.92;;;341.95;;
24445;SDS011;13347;50.984;5.822;2022-10-04T03:01:24;368.38;;;349.80;;
24445;SDS011;13347;50.984;5.822;2022-10-04T03:03:52;398.25;;;378.60;;
24445;SDS011;13347;50.984;5.822;2022-10-04T03:06:22;408.20;;;387.92;;
24445;SDS011;13347;50.984;5.822;2022-10-04T03:11:26;336.00;;;319.33;;
24445;SDS011;13347;50.984;5.822;2022-10-04T03:13:58;393.85;;;374.27;;
24445;SDS011;13347;50.984;5.822;2022-10-04T03:16:32;437.73;;;415.85;;
24445;SDS011;13347;50.984;5.822;2022-10-04T03:19:01;452.90;;;429.58;;
24445;SDS011;13347;50.984;5.822;2022-10-04T03:21:29;517.35;;;489.92;;
24445;SDS011;13347;50.984;5.822;2022-10-04T03:23:58;508.42;;;481.35;;
24445;SDS011;13347;50.984;5.822;2022-10-04T03:26:27;380.10;;;361.60;;
24445;SDS011;13347;50.984;5.822;2022-10-04T03:28:59;262.58;;;250.25;;
24445;SDS011;13347;50.984;5.822;2022-10-04T03:31:27;168.90;;;160.77;;
24445;SDS011;13347;50.984;5.822;2022-10-04T03:33:55;211.35;;;201.10;;
24445;SDS011;13347;50.984;5.822;2022-10-04T03:36:23;345.55;;;327.73;;
24445;SDS011;13347;50.984;5.822;2022-10-04T03:38:52;486.15;;;461.10;;
24445;SDS011;13347;50.984;5.822;2022-10-04T03:41:22;477.20;;;452.40;;
24445;SDS011;13347;50.984;5.822;2022-10-04T03:43:51;528.80;;;498.90;;
24445;SDS011;13347;50.984;5.822;2022-10-04T03:46:22;400.52;;;378.58;;
24445;SDS011;13347;50.984;5.822;2022-10-04T03:48:51;302.40;;;287.20;;
24445;SDS011;13347;50.984;5.822;2022-10-04T03:51:20;342.80;;;326.02;;
24445;SDS011;13347;50.984;5.822;2022-10-04T03:53:50;385.60;;;365.25;;
24445;SDS011;13347;50.984;5.822;2022-10-04T03:56:19;299.65;;;285.02;;
24445;SDS011;13347;50.984;5.822;2022-10-04T03:58:50;269.10;;;256.40;;
24445;SDS011;13347;50.984;5.822;2022-10-04T04:01:36;264.33;;;251.93;;
24445;SDS011;13347;50.984;5.822;2022-10-04T04:04:10;490.30;;;465.20;;
24445;SDS011;13347;50.984;5.822;2022-10-04T04:06:44;475.60;;;450.35;;
24445;SDS011;13347;50.984;5.822;2022-10-04T04:09:27;389.67;;;370.27;;
24445;SDS011;13347;50.984;5.822;2022-10-04T04:12:03;344.30;;;328.20;;
24445;SDS011;13347;50.984;5.822;2022-10-04T04:14:36;308.65;;;294.17;;
24445;SDS011;13347;50.984;5.822;2022-10-04T04:17:17;330.55;;;314.83;;
24445;SDS011;13347;50.984;5.822;2022-10-04T04:20:01;334.25;;;318.45;;
24445;SDS011;13347;50.984;5.822;2022-10-04T04:22:32;374.42;;;356.17;;
24445;SDS011;13347;50.984;5.822;2022-10-04T04:25:03;343.77;;;327.35;;
24445;SDS011;13347;50.984;5.822;2022-10-04T04:27:35;339.20;;;323.02;;
24445;SDS011;13347;50.984;5.822;2022-10-04T04:30:05;366.50;;;348.92;;
24445;SDS011;13347;50.984;5.822;2022-10-04T04:32:36;335.40;;;319.40;;
24445;SDS011;13347;50.984;5.822;2022-10-04T04:35:18;413.77;;;392.48;;
24445;SDS011;13347;50.984;5.822;2022-10-04T04:38:01;507.42;;;478.50;;
24445;SDS011;13347;50.984;5.822;2022-10-04T04:40:30;328.23;;;312.42;;
24445;SDS011;13347;50.984;5.822;2022-10-04T04:42:58;362.27;;;345.05;;
24445;SDS011;13347;50.984;5.822;2022-10-04T04:45:28;384.23;;;365.08;;
24445;SDS011;13347;50.984;5.822;2022-10-04T04:47:59;417.92;;;397.35;;
24445;SDS011;13347;50.984;5.822;2022-10-04T04:50:29;423.02;;;402.23;;
24445;SDS011;13347;50.984;5.822;2022-10-04T04:53:02;362.83;;;345.23;;
24445;SDS011;13347;50.984;5.822;2022-10-04T04:55:36;427.45;;;406.05;;
24445;SDS011;13347;50.984;5.822;2022-10-04T04:58:05;348.75;;;331.85;;
24445;SDS011;13347;50.984;5.822;2022-10-04T05:00:35;422.30;;;400.67;;
24445;SDS011;13347;50.984;5.822;2022-10-04T05:03:06;378.40;;;360.08;;
24445;SDS011;13347;50.984;5.822;2022-10-04T05:05:43;401.50;;;381.23;;
24445;SDS011;13347;50.984;5.822;2022-10-04T05:08:13;337.38;;;321.25;;
24445;SDS011;13347;50.984;5.822;2022-10-04T05:10:42;336.52;;;320.38;;
24445;SDS011;13347;50.984;5.822;2022-10-04T05:13:12;396.42;;;376.73;;
24445;SDS011;13347;50.984;5.822;2022-10-04T05:15:40;368.35;;;350.50;;
24445;SDS011;13347;50.984;5.822;2022-10-04T05:18:19;379.38;;;360.65;;
24445;SDS011;13347;50.984;5.822;2022-10-04T05:20:54;400.23;;;380.98;;
24445;SDS011;13347;50.984;5.822;2022-10-04T05:23:24;310.80;;;295.75;;
24445;SDS011;13347;50.984;5.822;2022-10-04T05:25:51;391.67;;;372.42;;
24445;SDS011;13347;50.984;5.822;2022-10-04T05:28:18;414.50;;;393.42;;
24445;SDS011;13347;50.984;5.822;2022-10-04T05:30:48;394.85;;;374.58;;
24445;SDS011;13347;50.984;5.822;2022-10-04T05:33:35;465.27;;;441.77;;
24445;SDS011;13347;50.984;5.822;2022-10-04T05:36:14;477.45;;;452.30;;
24445;SDS011;13347;50.984;5.822;2022-10-04T05:38:58;366.27;;;348.50;;
24445;SDS011;13347;50.984;5.822;2022-10-04T05:44:16;400.50;;;380.60;;
24445;SDS011;13347;50.984;5.822;2022-10-04T05:46:50;345.30;;;328.30;;
24445;SDS011;13347;50.984;5.822;2022-10-04T05:49:20;412.02;;;391.20;;
24445;SDS011;13347;50.984;5.822;2022-10-04T05:51:50;417.20;;;395.90;;
24445;SDS011;13347;50.984;5.822;2022-10-04T05:54:20;372.38;;;354.40;;
24445;SDS011;13347;50.984;5.822;2022-10-04T05:57:05;387.00;;;367.42;;
24445;SDS011;13347;50.984;5.822;2022-10-04T06:00:00;402.05;;;382.45;;
24445;SDS011;13347;50.984;5.822;2022-10-04T06:02:36;395.00;;;375.70;;
24445;SDS011;13347;50.984;5.822;2022-10-04T06:05:23;396.35;;;377.20;;
24445;SDS011;13347;50.984;5.822;2022-10-04T06:07:56;408.08;;;387.83;;
24445;SDS011;13347;50.984;5.822;2022-10-04T06:10:33;415.70;;;394.90;;
24445;SDS011;13347;50.984;5.822;2022-10-04T06:13:14;420.63;;;399.38;;
24445;SDS011;13347;50.984;5.822;2022-10-04T06:18:31;273.13;;;259.95;;
24445;SDS011;13347;50.984;5.822;2022-10-04T06:21:18;333.98;;;317.88;;
24445;SDS011;13347;50.984;5.822;2022-10-04T06:23:49;396.58;;;377.10;;
24445;SDS011;13347;50.984;5.822;2022-10-04T06:26:22;407.67;;;387.17;;
24445;SDS011;13347;50.984;5.822;2022-10-04T06:28:55;414.33;;;393.85;;
24445;SDS011;13347;50.984;5.822;2022-10-04T06:34:34;417.95;;;397.60;;
24445;SDS011;13347;50.984;5.822;2022-10-04T06:40:30;412.20;;;391.30;;
24445;SDS011;13347;50.984;5.822;2022-10-04T06:43:21;421.63;;;400.65;;
24445;SDS011;13347;50.984;5.822;2022-10-04T06:46:01;412.95;;;392.58;;
24445;SDS011;13347;50.984;5.822;2022-10-04T06:48:47;388.50;;;369.55;;
24445;SDS011;13347;50.984;5.822;2022-10-04T06:51:44;313.15;;;298.45;;
24445;SDS011;13347;50.984;5.822;2022-10-04T06:54:32;434.33;;;412.63;;
24445;SDS011;13347;50.984;5.822;2022-10-04T06:57:14;546.63;;;518.28;;
24445;SDS011;13347;50.984;5.822;2022-10-04T07:00:03;497.38;;;471.88;;
24445;SDS011;13347;50.984;5.822;2022-10-04T07:02:38;578.88;;;547.22;;
24445;SDS011;13347;50.984;5.822;2022-10-04T07:05:12;513.83;;;486.75;;
24445;SDS011;13347;50.984;5.822;2022-10-04T07:07:50;433.33;;;411.73;;
24445;SDS011;13347;50.984;5.822;2022-10-04T07:10:33;363.55;;;345.88;;
24445;SDS011;13347;50.984;5.822;2022-10-04T07:13:23;408.50;;;388.27;;
24445;SDS011;13347;50.984;5.822;2022-10-04T07:15:59;531.78;;;500.80;;
24445;SDS011;13347;50.984;5.822;2022-10-04T07:18:31;718.03;;;670.83;;
24445;SDS011;13347;50.984;5.822;2022-10-04T07:21:03;864.10;;;802.08;;
24445;SDS011;13347;50.984;5.822;2022-10-04T07:23:35;751.03;;;701.85;;
24445;SDS011;13347;50.984;5.822;2022-10-04T07:26:12;394.05;;;371.95;;
24445;SDS011;13347;50.984;5.822;2022-10-04T07:28:46;270.17;;;257.15;;
24445;SDS011;13347;50.984;5.822;2022-10-04T07:31:33;351.58;;;334.05;;
24445;SDS011;13347;50.984;5.822;2022-10-04T07:34:02;297.50;;;283.05;;
24445;SDS011;13347;50.984;5.822;2022-10-04T07:36:38;324.20;;;308.02;;
24445;SDS011;13347;50.984;5.822;2022-10-04T07:39:12;359.27;;;340.88;;
24445;SDS011;13347;50.984;5.822;2022-10-04T07:41:46;414.05;;;393.05;;
24445;SDS011;13347;50.984;5.822;2022-10-04T07:44:19;352.90;;;334.42;;
24445;SDS011;13347;50.984;5.822;2022-10-04T07:46:57;601.75;;;566.67;;
24445;SDS011;13347;50.984;5.822;2022-10-04T07:49:28;749.08;;;701.22;;
24445;SDS011;13347;50.984;5.822;2022-10-04T07:55:15;550.65;;;518.50;;
24445;SDS011;13347;50.984;5.822;2022-10-04T07:57:52;645.17;;;606.72;;
24445;SDS011;13347;50.984;5.822;2022-10-04T08:00:38;625.53;;;585.72;;
24445;SDS011;13347;50.984;5.822;2022-10-04T08:03:26;436.95;;;412.88;;
24445;SDS011;13347;50.984;5.822;2022-10-04T08:06:06;317.92;;;300.08;;
24445;SDS011;13347;50.984;5.822;2022-10-04T08:08:42;53.88;;;51.08;;
24445;SDS011;13347;50.984;5.822;2022-10-04T08:11:23;207.88;;;197.73;;
24445;SDS011;13347;50.984;5.822;2022-10-04T08:14:02;104.70;;;99.28;;
24445;SDS011;13347;50.984;5.822;2022-10-04T08:16:42;96.28;;;91.28;;
24445;SDS011;13347;50.984;5.822;2022-10-04T08:19:26;373.17;;;354.03;;
24445;SDS011;13347;50.984;5.822;2022-10-04T08:22:15;600.53;;;564.53;;
24445;SDS011;13347;50.984;5.822;2022-10-04T08:24:50;773.00;;;721.28;;
24445;SDS011;13347;50.984;5.822;2022-10-04T08:27:34;631.17;;;593.08;;
24445;SDS011;13347;50.984;5.822;2022-10-04T08:30:38;668.05;;;629.15;;
24445;SDS011;13347;50.984;5.822;2022-10-04T08:33:18;537.33;;;507.38;;
24445;SDS011;13347;50.984;5.822;2022-10-04T08:36:04;253.50;;;241.18;;
24445;SDS011;13347;50.984;5.822;2022-10-04T08:38:42;279.13;;;266.00;;
24445;SDS011;13347;50.984;5.822;2022-10-04T08:47:37;162.48;;;155.07;;
24445;SDS011;13347;50.984;5.822;2022-10-04T08:57:04;186.35;;;177.73;;
24445;SDS011;13347;50.984;5.822;2022-10-04T09:00:00;109.60;;;104.50;;
24445;SDS011;13347;50.984;5.822;2022-10-04T09:02:49;60.33;;;57.42;;
24445;SDS011;13347;50.984;5.822;2022-10-04T09:05:32;134.90;;;128.90;;
24445;SDS011;13347;50.984;5.822;2022-10-04T09:08:27;90.88;;;86.80;;
24445;SDS011;13347;50.984;5.822;2022-10-04T09:11:34;146.10;;;139.13;;
24445;SDS011;13347;50.984;5.822;2022-10-04T09:17:45;126.82;;;121.20;;
24445;SDS011;13347;50.984;5.822;2022-10-04T09:20:21;164.75;;;157.40;;
24445;SDS011;13347;50.984;5.822;2022-10-04T09:23:02;205.73;;;196.45;;
24445;SDS011;13347;50.984;5.822;2022-10-04T09:25:48;203.65;;;194.18;;
24445;SDS011;13347;50.984;5.822;2022-10-04T09:28:52;276.35;;;261.17;;
24445;SDS011;13347;50.984;5.822;2022-10-04T09:35:15;161.00;;;153.77;;
24445;SDS011;13347;50.984;5.822;2022-10-04T09:37:59;283.98;;;269.95;;
24445;SDS011;13347;50.984;5.822;2022-10-04T09:40:48;311.30;;;296.83;;
24445;SDS011;13347;50.984;5.822;2022-10-04T09:49:42;173.20;;;165.25;;
24445;SDS011;13347;50.984;5.822;2022-10-04T09:52:34;329.90;;;313.60;;
24445;SDS011;13347;50.984;5.822;2022-10-04T09:55:20;360.77;;;343.02;;
24445;SDS011;13347;50.984;5.822;2022-10-04T09:58:08;181.00;;;172.75;;
24445;SDS011;13347;50.984;5.822;2022-10-04T10:00:57;116.00;;;110.47;;
24445;SDS011;13347;50.984;5.822;2022-10-04T10:03:37;134.00;;;127.80;;
24445;SDS011;13347;50.984;5.822;2022-10-04T10:06:29;253.20;;;241.70;;
24445;SDS011;13347;50.984;5.822;2022-10-04T10:09:24;239.50;;;228.57;;
24445;SDS011;13347;50.984;5.822;2022-10-04T10:12:16;200.77;;;191.85;;
24445;SDS011;13347;50.984;5.822;2022-10-04T10:15:13;320.25;;;304.23;;
24445;SDS011;13347;50.984;5.822;2022-10-04T10:17:49;274.10;;;261.38;;
24445;SDS011;13347;50.984;5.822;2022-10-04T10:20:42;99.13;;;94.57;;
24445;SDS011;13347;50.984;5.822;2022-10-04T10:23:45;117.63;;;112.05;;
24445;SDS011;13347;50.984;5.822;2022-10-04T10:26:40;197.90;;;188.77;;
24445;SDS011;13347;50.984;5.822;2022-10-04T10:29:39;1999.90;;;999.90;;
24445;SDS011;13347;50.984;5.822;2022-10-04T10:32:37;1999.90;;;999.90;;
24445;SDS011;13347;50.984;5.822;2022-10-04T10:35:27;1999.90;;;999.90;;
24445;SDS011;13347;50.984;5.822;2022-10-04T10:38:23;1999.90;;;999.90;;
24445;SDS011;13347;50.984;5.822;2022-10-04T10:41:17;1999.90;;;999.90;;
24445;SDS011;13347;50.984;5.822;2022-10-04T10:44:07;1999.90;;;999.90;;
24445;SDS011;13347;50.984;5.822;2022-10-04T10:47:10;228.35;;;217.80;;
24445;SDS011;13347;50.984;5.822;2022-10-04T10:50:02;366.58;;;347.08;;
24445;SDS011;13347;50.984;5.822;2022-10-04T10:56:06;290.40;;;276.80;;
24445;SDS011;13347;50.984;5.822;2022-10-04T10:59:05;271.05;;;259.02;;
24445;SDS011;13347;50.984;5.822;2022-10-04T11:02:03;185.57;;;177.38;;
24445;SDS011;13347;50.984;5.822;2022-10-04T11:04:56;155.20;;;147.98;;
24445;SDS011;13347;50.984;5.822;2022-10-04T11:07:46;133.98;;;127.95;;
24445;SDS011;13347;50.984;5.822;2022-10-04T11:10:24;182.30;;;174.10;;
24445;SDS011;13347;50.984;5.822;2022-10-04T11:16:32;1999.90;;;999.90;;
24445;SDS011;13347;50.984;5.822;2022-10-04T11:19:44;1999.90;;;999.90;;
24445;SDS011;13347;50.984;5.822;2022-10-04T11:25:54;1999.90;;;999.90;;
24445;SDS011;13347;50.984;5.822;2022-10-04T11:28:37;1999.90;;;999.90;;
24445;SDS011;13347;50.984;5.822;2022-10-04T11:37:29;1999.90;;;999.90;;
24445;SDS011;13347;50.984;5.822;2022-10-04T11:40:15;1999.90;;;999.90;;
24445;SDS011;13347;50.984;5.822;2022-10-04T11:43:03;1999.90;;;999.90;;
24445;SDS011;13347;50.984;5.822;2022-10-04T11:45:55;1999.90;;;999.90;;
24445;SDS011;13347;50.984;5.822;2022-10-04T11:48:42;1999.90;;;999.90;;
24445;SDS011;13347;50.984;5.822;2022-10-04T11:51:41;1999.90;;;999.90;;
24445;SDS011;13347;50.984;5.822;2022-10-04T11:54:39;1999.90;;;999.90;;
24445;SDS011;13347;50.984;5.822;2022-10-04T11:57:33;1999.90;;;999.90;;
24445;SDS011;13347;50.984;5.822;2022-10-04T12:00:09;1999.90;;;999.90;;
24445;SDS011;13347;50.984;5.822;2022-10-04T12:02:55;1999.90;;;999.90;;
24445;SDS011;13347;50.984;5.822;2022-10-04T12:05:58;1999.90;;;999.90;;
24445;SDS011;13347;50.984;5.822;2022-10-04T12:08:47;1999.90;;;999.90;;
24445;SDS011;13347;50.984;5.822;2022-10-04T12:11:40;1999.90;;;999.90;;
24445;SDS011;13347;50.984;5.822;2022-10-04T12:14:51;1999.90;;;999.90;;
24445;SDS011;13347;50.984;5.822;2022-10-04T12:17:42;1999.90;;;999.90;;
24445;SDS011;13347;50.984;5.822;2022-10-04T12:20:39;1999.90;;;999.90;;
24445;SDS011;13347;50.984;5.822;2022-10-04T12:23:31;1137.30;;;631.05;;
24445;SDS011;13347;50.984;5.822;2022-10-04T12:32:33;1999.90;;;999.90;;
24445;SDS011;13347;50.984;5.822;2022-10-04T12:35:08;1999.90;;;999.90;;
24445;SDS011;13347;50.984;5.822;2022-10-04T12:37:58;1999.90;;;999.90;;
24445;SDS011;13347;50.984;5.822;2022-10-04T12:40:51;1603.25;;;847.97;;
24445;SDS011;13347;50.984;5.822;2022-10-04T12:43:27;166.57;;;158.95;;
24445;SDS011;13347;50.984;5.822;2022-10-04T12:46:04;354.83;;;337.67;;
24445;SDS011;13347;50.984;5.822;2022-10-04T12:48:43;181.15;;;173.00;;
24445;SDS011;13347;50.984;5.822;2022-10-04T12:51:24;288.35;;;274.45;;
24445;SDS011;13347;50.984;5.822;2022-10-04T12:54:07;278.13;;;265.48;;
24445;SDS011;13347;50.984;5.822;2022-10-04T12:59:37;215.02;;;205.30;;
24445;SDS011;13347;50.984;5.822;2022-10-04T13:02:17;351.67;;;334.65;;
24445;SDS011;13347;50.984;5.822;2022-10-04T13:10:35;277.17;;;264.67;;
24445;SDS011;13347;50.984;5.822;2022-10-04T13:13:26;265.65;;;253.75;;
24445;SDS011;13347;50.984;5.822;2022-10-04T13:16:09;150.50;;;143.90;;
24445;SDS011;13347;50.984;5.822;2022-10-04T13:18:46;122.07;;;116.65;;
24445;SDS011;13347;50.984;5.822;2022-10-04T13:21:20;1999.90;;;999.90;;
24445;SDS011;13347;50.984;5.822;2022-10-04T13:24:10;1999.90;;;999.90;;
24445;SDS011;13347;50.984;5.822;2022-10-04T13:26:46;1999.90;;;999.90;;
24445;SDS011;13347;50.984;5.822;2022-10-04T13:29:23;1999.90;;;999.90;;
24445;SDS011;13347;50.984;5.822;2022-10-04T13:31:55;1999.90;;;999.90;;
24445;SDS011;13347;50.984;5.822;2022-10-04T13:34:29;1999.90;;;999.90;;
24445;SDS011;13347;50.984;5.822;2022-10-04T13:40:02;1999.90;;;999.90;;
24445;SDS011;13347;50.984;5.822;2022-10-04T13:42:53;1999.90;;;999.90;;
24445;SDS011;13347;50.984;5.822;2022-10-04T13:45:38;1999.90;;;999.90;;
24445;SDS011;13347;50.984;5.822;2022-10-04T13:48:25;1999.90;;;999.90;;
24445;SDS011;13347;50.984;5.822;2022-10-04T13:51:04;1999.90;;;999.90;;
24445;SDS011;13347;50.984;5.822;2022-10-04T13:53:55;1999.90;;;999.90;;
24445;SDS011;13347;50.984;5.822;2022-10-04T13:56:57;1999.90;;;999.90;;
24445;SDS011;13347;50.984;5.822;2022-10-04T13:59:37;1999.90;;;999.90;;
24445;SDS011;13347;50.984;5.822;2022-10-04T14:05:31;1999.90;;;999.90;;
24445;SDS011;13347;50.984;5.822;2022-10-04T14:11:32;1999.90;;;999.90;;
24445;SDS011;13347;50.984;5.822;2022-10-04T14:14:30;1999.90;;;999.90;;
24445;SDS011;13347;50.984;5.822;2022-10-04T14:17:27;1999.90;;;999.90;;
24445;SDS011;13347;50.984;5.822;2022-10-04T14:21:00;1999.90;;;999.90;;
24445;SDS011;13347;50.984;5.822;2022-10-04T14:27:21;1999.90;;;999.90;;
24445;SDS011;13347;50.984;5.822;2022-10-04T14:30:15;1999.90;;;999.90;;
24445;SDS011;13347;50.984;5.822;2022-10-04T14:36:17;1999.90;;;999.90;;
24445;SDS011;13347;50.984;5.822;2022-10-04T14:39:12;1999.90;;;999.90;;
24445;SDS011;13347;50.984;5.822;2022-10-04T14:42:01;1999.90;;;999.90;;
24445;SDS011;13347;50.984;5.822;2022-10-04T14:47:47;283.77;;;271.08;;
24445;SDS011;13347;50.984;5.822;2022-10-04T14:50:49;1593.40;;;838.85;;
24445;SDS011;13347;50.984;5.822;2022-10-04T14:59:07;798.92;;;533.50;;
24445;SDS011;13347;50.984;5.822;2022-10-04T15:05:06;266.75;;;254.73;;
24445;SDS011;13347;50.984;5.822;2022-10-04T15:07:53;205.80;;;196.63;;
24445;SDS011;13347;50.984;5.822;2022-10-04T15:10:26;204.02;;;195.15;;
24445;SDS011;13347;50.984;5.822;2022-10-04T15:12:58;180.77;;;172.68;;
24445;SDS011;13347;50.984;5.822;2022-10-04T15:15:33;169.55;;;161.85;;
24445;SDS011;13347;50.984;5.822;2022-10-04T15:18:12;226.98;;;216.73;;
24445;SDS011;13347;50.984;5.822;2022-10-04T15:20:53;149.90;;;143.18;;
24445;SDS011;13347;50.984;5.822;2022-10-04T15:23:28;109.43;;;104.40;;
24445;SDS011;13347;50.984;5.822;2022-10-04T15:26:05;64.35;;;61.28;;
24445;SDS011;13347;50.984;5.822;2022-10-04T15:28:51;203.50;;;193.85;;
24445;SDS011;13347;50.984;5.822;2022-10-04T15:31:28;159.82;;;152.70;;
24445;SDS011;13347;50.984;5.822;2022-10-04T15:34:01;290.17;;;277.30;;
24445;SDS011;13347;50.984;5.822;2022-10-04T15:39:47;259.70;;;248.23;;
24445;SDS011;13347;50.984;5.822;2022-10-04T15:42:55;238.43;;;227.88;;
24445;SDS011;13347;50.984;5.822;2022-10-04T15:45:45;433.42;;;410.88;;
24445;SDS011;13347;50.984;5.822;2022-10-04T15:48:23;445.13;;;423.42;;
24445;SDS011;13347;50.984;5.822;2022-10-04T15:50:59;263.15;;;250.60;;
24445;SDS011;13347;50.984;5.822;2022-10-04T15:53:40;225.68;;;215.20;;
24445;SDS011;13347;50.984;5.822;2022-10-04T15:56:24;598.67;;;567.38;;
24445;SDS011;13347;50.984;5.822;2022-10-04T16:02:08;492.83;;;467.80;;
24445;SDS011;13347;50.984;5.822;2022-10-04T16:04:55;282.50;;;269.50;;
24445;SDS011;13347;50.984;5.822;2022-10-04T16:07:35;170.48;;;162.95;;
24445;SDS011;13347;50.984;5.822;2022-10-04T16:10:16;183.63;;;175.55;;
24445;SDS011;13347;50.984;5.822;2022-10-04T16:15:49;188.65;;;180.18;;
24445;SDS011;13347;50.984;5.822;2022-10-04T16:19:02;135.20;;;129.20;;
24445;SDS011;13347;50.984;5.822;2022-10-04T16:21:36;234.30;;;224.00;;
24445;SDS011;13347;50.984;5.822;2022-10-04T16:24:25;436.25;;;415.13;;
24445;SDS011;13347;50.984;5.822;2022-10-04T16:30:03;127.95;;;122.07;;
24445;SDS011;13347;50.984;5.822;2022-10-04T16:32:41;129.48;;;123.55;;
24445;SDS011;13347;50.984;5.822;2022-10-04T16:35:15;147.00;;;140.43;;
24445;SDS011;13347;50.984;5.822;2022-10-04T16:37:54;188.25;;;179.60;;
24445;SDS011;13347;50.984;5.822;2022-10-04T16:42:58;135.63;;;129.50;;
24445;SDS011;13347;50.984;5.822;2022-10-04T16:45:31;167.70;;;160.13;;
24445;SDS011;13347;50.984;5.822;2022-10-04T16:48:20;116.35;;;111.15;;
24445;SDS011;13347;50.984;5.822;2022-10-04T16:54:06;198.13;;;189.15;;
24445;SDS011;13347;50.984;5.822;2022-10-04T16:57:12;136.25;;;130.02;;
24445;SDS011;13347;50.984;5.822;2022-10-04T16:59:50;119.57;;;114.22;;
24445;SDS011;13347;50.984;5.822;2022-10-04T17:05:45;115.25;;;110.05;;
24445;SDS011;13347;50.984;5.822;2022-10-04T17:08:24;181.32;;;172.85;;
24445;SDS011;13347;50.984;5.822;2022-10-04T17:14:30;148.20;;;141.50;;
24445;SDS011;13347;50.984;5.822;2022-10-04T17:17:15;111.60;;;106.55;;
24445;SDS011;13347;50.984;5.822;2022-10-04T17:19:57;121.10;;;115.65;;
24445;SDS011;13347;50.984;5.822;2022-10-04T17:22:37;209.85;;;199.25;;